Rejestracja

Wszystkie dane podawane są w czasie UTC za wyjątkiem miejsc gdzie jest jednoznacznie podane, że jest inaczej. Dane podawane w serwisie mają charakter informacyjny!!!
Informacje w sprawie dostępu do serwisu pod numerem tel. +48 261-828-138
Informacja dla żołnierzy i pracowników wojska: Prosimy o niezwłoczną zmianę adresu e-mail w profilu użytkownika na pocztę w domenie @ron.mil.pl

Aktualna Pogoda
 
Pogoda w Polsce
20°C Szczecin 18°C Suwałki 23°C Warszawa 21°C Poznan
24°C Opole 24°C Kraków 24°C Rzeszów
Więcej miast w Polsce

Pogoda w Europie
22°C Berlin 16°C Paryz 15°C Bruksela 7°C Oslo
16°C Praga 24°C Zagrzeb
Więcej miast w Europie

Metary wojskowe test
METAR EPBC 151300Z 15007KT CAVOK 26/10 Q1011=
METAR EPCE 151400Z 13006KT CAVOK 19/14 Q1008 RMK 188 072 0/0=
METAR EPDA 151400Z 13005KT 100V200 CAVOK 20/13 Q1007 RMK 200 066 1/1=
METAR EPDE 151330Z 12010KT CAVOK 22/11 Q1013 RMK 221 048 4/1=
METAR EPIR 151330Z 11008KT CAVOK 19/13 Q1009 RMK 190 066 4/4=
METAR EPKS 151400Z 15009KT CAVOK 22/12 Q1007 RMK 218 054 2/2=
METAR EPLK 151400Z 10010KT CAVOK 21/13 Q1010 RMK 209 060 4/1=
METAR EPLY 151400Z 15008KT CAVOK 23/12 Q1009 RMK 227 051 3/3=
METAR EPMB 151330Z 17012KT CAVOK 20/14 Q1009 RMK 199 068 2/2=
METAR EPMI 151330Z 14006KT 9999 FEW028 SCT200 19/13 Q1008 RMK 191 069 4/1=
METAR EPMM 151330Z 16008KT 130V190 CAVOK 23/10 Q1012 RMK 226 045 3/1=
METAR EPNA 151330Z VRB03KT 9999 FEW040 SCT200 20/13 Q1008 RMK 198 066 3/2=
METAR EPOK 151330Z 13005KT 100V170 CAVOK 16/13 Q1009 RMK 164 082 3/3=
METAR EPPR 151330Z 12006KT CAVOK 21/13 Q1009 RMK 206 061 4/4=
METAR EPPW 151330Z 16008KT CAVOK 23/12 Q1008 RMK 225 051 2/1=
METAR EPSN 151400Z 13008KT 9999 FEW030 SCT200 19/13 Q1007 RMK 192 066 4/2=
METAR EPTM 151330Z 15006KT CAVOK 23/11 Q1011 RMK 225 049 3/1=


 

Prawa autorskie©2007 SSH SZ RP. Wszelkie prawa zastrzeżone.